createdAt,value
2023-09-12T00:02:44.149Z,15.26
2023-09-12T00:05:39.352Z,15.26
2023-09-12T00:09:17.879Z,15.26
2023-09-12T00:12:56.435Z,15.16
2023-09-12T00:16:00.423Z,15.10
2023-09-12T00:19:15.978Z,15.11
2023-09-12T00:22:23.020Z,15.11
2023-09-12T00:25:25.671Z,15.06
2023-09-12T00:28:10.589Z,15.03
2023-09-12T00:31:15.008Z,15.03
2023-09-12T00:34:50.285Z,15.04
2023-09-12T00:37:58.262Z,15.10
2023-09-12T00:41:32.844Z,15.12
2023-09-12T00:44:04.651Z,15.11
2023-09-12T00:46:41.959Z,15.10
2023-09-12T00:49:35.189Z,15.10
2023-09-12T00:52:30.604Z,15.06
2023-09-12T00:55:59.580Z,15.05
2023-09-12T00:59:17.957Z,15.01
2023-09-12T01:02:16.813Z,14.99
2023-09-12T01:04:59.520Z,14.98
2023-09-12T01:07:53.732Z,14.96
2023-09-12T01:10:48.357Z,14.92
2023-09-12T01:13:40.217Z,14.94
2023-09-12T01:16:25.913Z,14.96
2023-09-12T01:19:08.357Z,14.96
2023-09-12T01:22:09.169Z,14.97
2023-09-12T01:26:03.357Z,14.94
2023-09-12T01:29:09.467Z,14.87
2023-09-12T01:32:01.474Z,14.85
2023-09-12T01:35:04.643Z,14.86
2023-09-12T01:38:31.072Z,14.84
2023-09-12T01:41:30.126Z,14.76
2023-09-12T01:44:40.357Z,14.69
2023-09-12T01:47:31.803Z,14.66
2023-09-12T01:50:25.888Z,14.66
2023-09-12T01:53:32.984Z,14.65
2023-09-12T01:56:11.806Z,14.63
2023-09-12T01:59:07.298Z,14.60
2023-09-12T02:02:25.839Z,14.58
2023-09-12T02:05:18.602Z,14.59
2023-09-12T02:08:06.476Z,14.61
2023-09-12T02:10:40.607Z,14.61
2023-09-12T02:13:23.203Z,14.61
2023-09-12T02:16:24.957Z,14.62
2023-09-12T02:19:08.151Z,14.58
2023-09-12T02:21:59.107Z,14.55
2023-09-12T02:24:52.604Z,14.52
2023-09-12T02:27:28.867Z,14.50
2023-09-12T02:30:11.385Z,14.49
2023-09-12T02:32:57.797Z,14.47
2023-09-12T02:35:52.017Z,14.44
2023-09-12T02:38:38.086Z,14.41
2023-09-12T02:41:39.354Z,14.40
2023-09-12T02:44:42.306Z,14.38
2023-09-12T02:47:47.881Z,14.37
2023-09-12T02:50:41.418Z,14.35
2023-09-12T02:53:42.954Z,14.33
2023-09-12T02:57:07.205Z,14.31
2023-09-12T03:00:20.960Z,14.31
2023-09-12T03:03:53.908Z,14.32
2023-09-12T03:06:45.066Z,14.29
2023-09-12T03:09:25.449Z,14.27
2023-09-12T03:12:23.077Z,14.27
2023-09-12T03:15:17.116Z,14.26
2023-09-12T03:18:14.199Z,14.23
2023-09-12T03:21:12.520Z,14.21
2023-09-12T03:24:20.200Z,14.17
2023-09-12T03:26:55.037Z,14.15
2023-09-12T03:29:24.396Z,14.16
2023-09-12T03:32:01.799Z,14.14
2023-09-12T03:34:35.696Z,14.16
2023-09-12T03:37:16.351Z,14.16
2023-09-12T03:39:59.558Z,14.15
2023-09-12T03:42:42.535Z,14.14
2023-09-12T03:45:48.060Z,14.14
2023-09-12T03:48:37.324Z,14.12
2023-09-12T03:51:33.243Z,14.11
2023-09-12T03:54:31.207Z,14.12
2023-09-12T03:57:21.649Z,14.11
2023-09-12T04:00:34.816Z,14.13
2023-09-12T04:04:04.425Z,14.11
2023-09-12T04:07:15.620Z,14.11
2023-09-12T04:10:15.063Z,14.08
2023-09-12T04:13:39.109Z,14.05
2023-09-12T04:16:35.067Z,14.08
2023-09-12T04:19:20.841Z,14.14
2023-09-12T04:22:02.740Z,14.17
2023-09-12T04:24:48.689Z,14.19
2023-09-12T04:27:35.977Z,14.20
2023-09-12T04:30:13.337Z,14.20
2023-09-12T04:33:14.713Z,14.22
2023-09-12T04:35:52.102Z,14.26
2023-09-12T04:39:03.035Z,14.27
2023-09-12T04:42:05.049Z,14.28
2023-09-12T04:45:00.287Z,14.29
2023-09-12T04:47:47.703Z,14.33
2023-09-12T04:50:47.957Z,14.40
2023-09-12T04:53:32.307Z,14.45
2023-09-12T04:56:11.009Z,14.52
2023-09-12T04:58:40.805Z,14.56
2023-09-12T05:01:29.926Z,14.59
2023-09-12T05:04:04.271Z,14.63
2023-09-12T05:06:36.886Z,14.67
2023-09-12T05:09:10.462Z,14.74
2023-09-12T05:12:06.298Z,14.82
2023-09-12T05:14:47.682Z,14.92
2023-09-12T05:17:16.370Z,15.01
2023-09-12T05:19:45.402Z,15.09
2023-09-12T05:22:22.494Z,15.24
2023-09-12T05:24:54.463Z,15.37
2023-09-12T05:27:29.054Z,15.47
2023-09-12T05:30:10.409Z,15.62
2023-09-12T05:32:42.934Z,15.73
2023-09-12T05:35:21.526Z,15.84
2023-09-12T05:38:02.068Z,15.98
2023-09-12T05:40:40.701Z,16.12
2023-09-12T05:43:20.944Z,16.27
2023-09-12T05:45:55.487Z,16.41
2023-09-12T05:48:33.047Z,16.57
2023-09-12T05:51:22.806Z,17.09
2023-09-12T05:54:00.017Z,17.40
2023-09-12T05:56:34.348Z,17.36
2023-09-12T05:59:10.599Z,17.33
2023-09-12T06:01:53.581Z,17.35
2023-09-12T06:04:30.790Z,17.41
2023-09-12T06:07:33.497Z,17.41
2023-09-12T06:10:16.250Z,17.39
2023-09-12T06:13:44.500Z,17.46
2023-09-12T06:16:21.578Z,17.51
2023-09-12T06:18:58.604Z,17.53
2023-09-12T06:21:35.451Z,17.59
2023-09-12T06:24:18.286Z,17.61
2023-09-12T06:26:50.239Z,17.69
2023-09-12T06:29:35.630Z,17.73
2023-09-12T06:32:08.747Z,17.84
2023-09-12T06:35:02.921Z,17.94
2023-09-12T06:37:41.667Z,18.07
2023-09-12T06:40:18.319Z,18.07
2023-09-12T06:42:55.463Z,18.02
2023-09-12T06:45:31.969Z,18.05
2023-09-12T06:48:07.816Z,18.18
2023-09-12T06:50:53.764Z,18.18
2023-09-12T06:53:38.701Z,18.32
2023-09-12T06:56:10.355Z,18.45
2023-09-12T06:58:44.982Z,18.55
2023-09-12T07:01:21.793Z,18.65
2023-09-12T07:03:56.173Z,18.78
2023-09-12T07:06:25.245Z,18.90
2023-09-12T07:09:09.918Z,18.97
2023-09-12T07:11:41.364Z,19.03
2023-09-12T07:14:15.141Z,19.13
2023-09-12T07:16:49.396Z,19.22
2023-09-12T07:19:28.903Z,19.26
2023-09-12T07:22:03.479Z,19.35
2023-09-12T07:24:48.179Z,19.50
2023-09-12T07:27:35.840Z,19.64
2023-09-12T07:30:40.568Z,19.81
2023-09-12T07:33:33.232Z,19.97
2023-09-12T07:36:07.450Z,20.11
2023-09-12T07:38:41.299Z,20.18
2023-09-12T07:41:20.994Z,20.29
2023-09-12T07:43:53.670Z,20.41
2023-09-12T07:46:22.789Z,20.51
2023-09-12T07:48:59.987Z,20.63
2023-09-12T07:51:35.465Z,20.74
2023-09-12T07:54:04.420Z,20.83
2023-09-12T07:56:39.563Z,20.93
2023-09-12T07:59:17.080Z,21.03
2023-09-12T08:02:04.101Z,21.16
2023-09-12T08:04:35.977Z,21.28
2023-09-12T08:07:07.880Z,21.40
2023-09-12T08:09:58.540Z,21.48
2023-09-12T08:12:36.812Z,21.54
2023-09-12T08:15:06.126Z,21.60
2023-09-12T08:17:41.105Z,21.64
2023-09-12T08:20:16.014Z,21.73
2023-09-12T08:22:51.539Z,21.83
2023-09-12T08:25:25.680Z,21.92
2023-09-12T08:28:26.633Z,21.99
2023-09-12T08:31:14.698Z,22.06
2023-09-12T08:34:02.491Z,22.12
2023-09-12T08:37:00.806Z,22.21
2023-09-12T08:39:50.111Z,22.30
2023-09-12T08:42:35.197Z,22.36
2023-09-12T08:45:13.130Z,22.40
2023-09-12T08:47:46.288Z,22.45
2023-09-12T08:50:24.650Z,22.54
2023-09-12T08:53:07.081Z,22.67
2023-09-12T08:55:55.685Z,22.80
2023-09-12T08:58:46.029Z,22.90
2023-09-12T09:02:05.149Z,23.04
2023-09-12T09:04:54.182Z,23.17
2023-09-12T09:07:23.793Z,23.30
2023-09-12T09:10:00.815Z,23.40
2023-09-12T09:12:46.467Z,23.47
2023-09-12T09:15:48.830Z,23.56
2023-09-12T09:18:24.020Z,23.62
2023-09-12T09:21:26.027Z,23.71
2023-09-12T09:24:44.264Z,23.82
2023-09-12T09:27:44.981Z,23.92
2023-09-12T09:30:40.018Z,23.97
2023-09-12T09:33:12.837Z,24.02
2023-09-12T09:35:50.637Z,24.06
2023-09-12T09:38:34.976Z,24.14
2023-09-12T09:41:09.705Z,24.23
2023-09-12T09:43:53.764Z,24.35
2023-09-12T09:46:33.932Z,24.49
2023-09-12T09:49:03.489Z,24.63
2023-09-12T09:51:55.699Z,24.72
2023-09-12T09:54:57.462Z,24.82
2023-09-12T09:57:58.446Z,24.95
2023-09-12T10:00:59.083Z,25.10
2023-09-12T10:03:46.450Z,25.25
2023-09-12T10:06:21.233Z,25.39
2023-09-12T10:09:31.656Z,25.47
2023-09-12T10:12:09.575Z,25.63
2023-09-12T10:14:47.131Z,25.76
2023-09-12T10:17:26.079Z,25.85
2023-09-12T10:20:32.367Z,25.93
2023-09-12T10:23:28.248Z,26.13
2023-09-12T10:26:19.602Z,26.30
2023-09-12T10:29:06.000Z,26.50
2023-09-12T10:59:12.531Z,30.18
2023-09-12T11:05:54.386Z,31.28
2023-09-12T11:08:24.095Z,31.63
2023-09-12T11:15:14.638Z,32.14
2023-09-12T11:17:50.750Z,32.43
2023-09-12T11:20:54.907Z,32.78
2023-09-12T11:23:30.424Z,33.21
2023-09-12T11:26:24.801Z,33.41
2023-09-12T11:29:19.629Z,33.45
2023-09-12T11:32:28.580Z,33.58
2023-09-12T11:35:01.929Z,33.71
2023-09-12T11:37:31.357Z,33.88
2023-09-12T11:40:11.129Z,34.04
2023-09-12T11:42:45.023Z,34.19
2023-09-12T11:45:27.125Z,34.52
2023-09-12T11:48:01.812Z,34.97
2023-09-12T11:50:40.723Z,34.96
2023-09-12T11:54:04.952Z,34.96
2023-09-12T11:57:14.427Z,35.15
2023-09-12T12:04:44.450Z,35.93
2023-09-12T12:08:39.077Z,36.09
2023-09-12T12:12:16.936Z,36.83
2023-09-12T12:14:53.289Z,37.28
2023-09-12T12:17:28.546Z,37.07
2023-09-12T12:20:00.671Z,37.29
2023-09-12T12:22:34.652Z,37.28
2023-09-12T12:25:13.525Z,37.11
2023-09-12T12:27:48.212Z,36.72
2023-09-12T12:30:21.178Z,36.69
2023-09-12T12:32:53.262Z,37.22
2023-09-12T12:35:43.500Z,37.65
2023-09-12T12:39:02.747Z,37.83
2023-09-12T12:41:52.215Z,37.40
2023-09-12T12:44:41.844Z,37.42
2023-09-12T12:47:16.570Z,37.67
2023-09-12T12:50:00.767Z,38.26
2023-09-12T12:52:38.837Z,38.86
2023-09-12T12:55:45.930Z,39.15
2023-09-12T12:58:36.345Z,38.78
2023-09-12T13:01:40.369Z,39.00
2023-09-12T13:05:53.651Z,39.03
2023-09-12T13:09:25.794Z,39.52
2023-09-12T13:11:49.397Z,39.67
2023-09-12T13:15:02.722Z,39.88
2023-09-12T13:17:57.710Z,40.03
2023-09-12T13:20:30.426Z,40.07
2023-09-12T13:22:59.262Z,40.20
2023-09-12T13:25:29.211Z,40.55
2023-09-12T13:28:02.153Z,40.60
2023-09-12T13:30:30.844Z,40.19
2023-09-12T13:33:04.023Z,40.05
2023-09-12T13:35:37.457Z,39.90
2023-09-12T13:38:13.522Z,39.89
2023-09-12T13:40:48.070Z,40.11
2023-09-12T13:43:24.876Z,40.24
2023-09-12T13:46:16.758Z,40.19
2023-09-12T13:48:53.984Z,40.62
2023-09-12T13:51:23.346Z,40.86
2023-09-12T13:53:57.246Z,40.94
2023-09-12T13:56:37.034Z,40.86
2023-09-12T13:59:08.097Z,40.75
2023-09-12T14:01:42.974Z,40.75
2023-09-12T14:04:15.362Z,40.63
2023-09-12T14:06:48.237Z,40.62
2023-09-12T14:09:26.262Z,40.58
2023-09-12T14:11:58.397Z,40.42
2023-09-12T14:14:27.757Z,40.15
2023-09-12T14:16:56.923Z,39.82
2023-09-12T14:19:30.181Z,39.40
2023-09-12T14:21:59.906Z,39.06
2023-09-12T14:24:36.205Z,38.26
2023-09-12T14:27:25.505Z,37.31
2023-09-12T14:30:07.753Z,36.80
2023-09-12T14:32:37.341Z,36.26
2023-09-12T14:35:09.682Z,35.10
2023-09-12T14:37:40.998Z,33.96
2023-09-12T14:40:18.246Z,33.12
2023-09-12T14:42:48.408Z,32.29
2023-09-12T14:45:17.869Z,31.66
2023-09-12T14:47:48.929Z,31.23
2023-09-12T14:50:22.078Z,30.81
2023-09-12T14:52:53.022Z,30.43
2023-09-12T14:55:27.345Z,29.92
2023-09-12T14:57:58.034Z,29.53
2023-09-12T15:00:39.680Z,29.31
2023-09-12T15:03:13.809Z,29.09
2023-09-12T15:05:44.993Z,28.88
2023-09-12T15:08:18.534Z,28.75
2023-09-12T15:10:58.242Z,28.53
2023-09-12T15:13:32.473Z,28.26
2023-09-12T15:16:01.237Z,28.08
2023-09-12T15:18:33.043Z,27.92
2023-09-12T15:22:21.846Z,27.78
2023-09-12T15:24:53.383Z,27.56
2023-09-12T15:27:38.044Z,27.47
2023-09-12T15:30:13.577Z,27.37
2023-09-12T15:32:56.629Z,27.28
2023-09-12T15:35:26.125Z,27.15
2023-09-12T15:37:54.872Z,27.06
2023-09-12T15:40:23.471Z,27.00
2023-09-12T15:42:52.260Z,26.90
2023-09-12T15:45:21.384Z,26.78
2023-09-12T15:47:54.231Z,26.71
2023-09-12T15:50:25.777Z,26.63
2023-09-12T15:52:57.197Z,26.53
2023-09-12T15:55:26.159Z,26.41
2023-09-12T15:58:00.357Z,26.29
2023-09-12T16:00:44.503Z,26.15
2023-09-12T16:03:17.429Z,26.02
2023-09-12T16:05:51.631Z,25.89
2023-09-12T16:08:21.691Z,25.79
2023-09-12T16:11:05.555Z,25.65
2023-09-12T16:13:51.633Z,25.52
2023-09-12T16:16:39.676Z,25.38
2023-09-12T16:19:20.747Z,25.29
2023-09-12T16:21:51.906Z,25.20
2023-09-12T16:24:23.855Z,25.10
2023-09-12T16:27:03.500Z,24.99
2023-09-12T16:37:30.026Z,24.65
2023-09-12T16:40:07.651Z,24.48
2023-09-12T16:42:39.704Z,24.35
2023-09-12T16:45:38.743Z,24.21
2023-09-12T16:48:14.162Z,24.12
2023-09-12T16:50:43.185Z,23.99
2023-09-12T16:53:16.800Z,23.87
2023-09-12T16:55:45.525Z,23.75
2023-09-12T16:58:18.567Z,23.63
2023-09-12T17:00:47.372Z,23.51
2023-09-12T17:03:21.284Z,23.42
2023-09-12T17:05:52.754Z,23.30
2023-09-12T17:08:21.358Z,23.18
2023-09-12T17:10:50.841Z,23.09
2023-09-12T17:13:19.524Z,23.00
2023-09-12T17:16:22.344Z,22.93
2023-09-12T17:19:08.440Z,22.78
2023-09-12T17:22:04.924Z,22.67
2023-09-12T17:24:40.820Z,22.54
2023-09-12T17:27:27.023Z,22.49
2023-09-12T17:30:07.313Z,22.40
2023-09-12T17:33:17.728Z,22.30
2023-09-12T17:36:02.413Z,22.21
2023-09-12T17:38:35.148Z,22.13
2023-09-12T17:41:03.912Z,22.05
2023-09-12T17:44:06.776Z,21.99
2023-09-12T17:46:35.764Z,21.90
2023-09-12T17:49:08.031Z,21.82
2023-09-12T17:51:36.959Z,21.74
2023-09-12T17:54:07.836Z,21.66
2023-09-12T17:57:19.350Z,21.59
2023-09-12T18:00:00.001Z,21.48
2023-09-12T18:03:22.528Z,21.37
2023-09-12T18:10:28.292Z,21.18
2023-09-12T18:13:02.951Z,21.12
2023-09-12T18:15:41.688Z,21.04
2023-09-12T18:18:34.439Z,20.97
2023-09-12T18:21:14.684Z,20.88
2023-09-12T18:23:49.328Z,20.80
2023-09-12T18:26:37.555Z,20.71
2023-09-12T18:29:28.418Z,20.63
2023-09-12T18:36:14.535Z,20.47
2023-09-12T18:41:49.209Z,20.35
2023-09-12T18:44:18.923Z,20.17
2023-09-12T18:47:41.362Z,20.07
2023-09-12T18:50:26.827Z,19.95
2023-09-12T18:53:02.964Z,19.90
2023-09-12T18:55:43.787Z,19.82
2023-09-12T18:58:23.826Z,19.78
2023-09-12T19:01:03.154Z,19.74
2023-09-12T19:03:35.806Z,19.71
2023-09-12T19:06:22.056Z,19.68
2023-09-12T19:09:02.474Z,19.62
2023-09-12T19:11:50.046Z,19.57
2023-09-12T19:14:27.309Z,19.50
2023-09-12T19:17:12.610Z,19.41
2023-09-12T19:20:07.839Z,19.29
2023-09-12T19:23:36.456Z,19.23
2023-09-12T19:26:54.268Z,19.23
2023-09-12T19:29:34.168Z,19.20
2023-09-12T19:32:37.815Z,19.23
2023-09-12T19:35:31.321Z,19.21
2023-09-12T19:38:45.597Z,19.16
2023-09-12T19:41:53.297Z,19.08
2023-09-12T19:44:33.401Z,19.00
2023-09-12T19:47:23.704Z,18.93
2023-09-12T19:50:23.637Z,18.88
2023-09-12T19:53:22.800Z,18.87
2023-09-12T19:55:59.812Z,18.88
2023-09-12T19:58:38.600Z,18.88
2023-09-12T20:02:02.120Z,18.89
2023-09-12T20:04:35.697Z,18.88
2023-09-12T20:07:27.378Z,18.86
2023-09-12T20:10:29.779Z,18.84
2023-09-12T20:13:10.876Z,18.78
2023-09-12T20:15:39.808Z,18.74
2023-09-12T20:18:27.956Z,18.71
2023-09-12T20:21:18.755Z,18.69
2023-09-12T20:23:50.744Z,18.67
2023-09-12T20:26:19.412Z,18.65
2023-09-12T20:28:48.319Z,18.63
2023-09-12T20:31:19.104Z,18.61
2023-09-12T20:33:48.165Z,18.59
2023-09-12T20:36:30.777Z,18.57
2023-09-12T20:39:44.138Z,18.54
2023-09-12T20:42:25.374Z,18.49
2023-09-12T20:44:56.607Z,18.48
2023-09-12T20:47:28.545Z,18.46
2023-09-12T20:50:07.278Z,18.45
2023-09-12T20:52:36.305Z,18.43
2023-09-12T20:55:15.992Z,18.40
2023-09-12T20:57:45.113Z,18.35
2023-09-12T21:00:14.728Z,18.32
2023-09-12T21:02:49.125Z,18.28
2023-09-12T21:05:27.376Z,18.25
2023-09-12T21:07:58.629Z,18.22
2023-09-12T21:10:38.362Z,18.21
2023-09-12T21:13:16.204Z,18.19
2023-09-12T21:15:51.882Z,18.18
2023-09-12T21:18:20.819Z,18.15
2023-09-12T21:20:49.694Z,18.11
2023-09-12T21:23:19.312Z,18.08
2023-09-12T21:25:55.781Z,18.06
2023-09-12T21:28:30.407Z,18.05
2023-09-12T21:31:08.756Z,18.02
2023-09-12T21:33:40.944Z,17.98
2023-09-12T21:36:15.529Z,17.94
2023-09-12T21:38:55.022Z,17.89
2023-09-12T21:41:29.172Z,17.86
2023-09-12T21:44:15.315Z,17.83
2023-09-12T21:46:50.171Z,17.83
2023-09-12T21:49:27.891Z,17.83
2023-09-12T21:52:09.770Z,17.83
2023-09-12T21:54:41.172Z,17.83
2023-09-12T21:57:12.384Z,17.79
2023-09-12T21:59:47.227Z,17.75
2023-09-12T22:02:29.172Z,17.69
2023-09-12T22:05:17.621Z,17.64
2023-09-12T22:08:08.285Z,17.62
2023-09-12T22:10:44.484Z,17.63
2023-09-12T22:13:16.896Z,17.63
2023-09-12T22:15:46.358Z,17.64
2023-09-12T22:18:15.202Z,17.65
2023-09-12T22:21:00.611Z,17.67
2023-09-12T22:23:31.901Z,17.68
2023-09-12T22:26:29.546Z,17.70
2023-09-12T22:29:30.325Z,17.68
2023-09-12T22:32:05.235Z,17.68
2023-09-12T22:34:36.995Z,17.67
2023-09-12T22:37:24.126Z,17.67
2023-09-12T22:39:53.273Z,17.68
2023-09-12T22:42:22.995Z,17.69
2023-09-12T22:44:52.003Z,17.68
2023-09-12T22:47:20.751Z,17.70
2023-09-12T22:49:52.680Z,17.69
2023-09-12T22:52:41.680Z,17.66
2023-09-12T22:55:43.348Z,17.63
2023-09-12T22:58:50.639Z,17.62
2023-09-12T23:02:39.522Z,17.62
2023-09-12T23:05:38.136Z,17.57
2023-09-12T23:08:09.218Z,17.58
2023-09-12T23:10:37.870Z,17.57
2023-09-12T23:13:20.670Z,17.54
2023-09-12T23:15:50.035Z,17.50
2023-09-12T23:18:52.429Z,17.49
2023-09-12T23:21:46.926Z,17.48
2023-09-12T23:24:26.499Z,17.47
2023-09-12T23:26:58.470Z,17.46
2023-09-12T23:29:38.037Z,17.44
2023-09-12T23:32:19.535Z,17.41
2023-09-12T23:35:05.460Z,17.37
2023-09-12T23:37:43.565Z,17.33
2023-09-12T23:40:17.941Z,17.34
2023-09-12T23:42:52.481Z,17.35
2023-09-12T23:45:37.704Z,17.35
2023-09-12T23:48:50.931Z,17.34
2023-09-12T23:51:23.150Z,17.32
2023-09-12T23:53:52.215Z,17.29
2023-09-12T23:56:23.679Z,17.23
2023-09-12T23:58:54.877Z,17.17
